Yantley, AL

5:50 PM CDT on July 25, 2016 (GMT -0500)
KALBUTLE3 | | Change Station

Elev 183 ft 32.10 °N, 88.20 °W | Updated 5 minutes ago

Partly Cloudy
Partly Cloudy
93.7 °F
Feels Like 103 °F
N
3.4
Wind Variable Wind from SE
Gusts 3.4 mph

Today
High -- | Low -- °F
--% Chance of Precip.
Yesterday
High -- | Low -- °F
Precip. -- in
Pressure 29.93 in
Visibility 10.0 miles
Clouds Few 6000 ft
Few 7000 ft
Heat Index 103 °F
Dew Point 73 °F
Humidity 51%
Rainfall 0.00 in
Snow Depth Not available.
6:03 AM 7:55 PM
Waning Gibbous, 61% visible
METAR KMEI 252158Z 10007KT 10SM FEW060 FEW070 36/21 A2994 RMK AO2 SLP133 T03610206
Pressure 29.93 in
Visibility 10.0 miles
Clouds Few 6000 ft
Few 7000 ft
Heat Index 103 °F
Dew Point 73 °F
Humidity 51%
Rainfall 0.00 in
Snow Depth Not available.
6:03 AM 7:55 PM
Waning Gibbous, 61% visible
METAR KMEI 252158Z 10007KT 10SM FEW060 FEW070 36/21 A2994 RMK AO2 SLP133 T03610206
Record highs are possible for parts of the Northeast Monday and Tuesday, as parts of the central U.S. take a little breather from the worst of summer's dog day heat.

Expansive high pressure in the upper atmosphere will focus on parts of the East and West this week, sending heat indices well into the triple digits from the Mid-Atlantic states into the South.

10-Day Weather Forecast

Almanac

Astronomy

Jul. 25, 2016 Rise Set
Actual Time
Civil Twilight
Nautical Twilight
Astronomical Twilight
Moon
Length of Visible Light
Length of Day
Tomorrow will be .
, % of the Moon is Illuminated

Today's Extremes

State Highs State Lows

Community

WunderPhotos

Upload Photos

1,927,436 photos uploaded!

WunderBlog® & News

Nearby

Air Quality

  Air Quality AQ Index Pollutant
Not available.

Snow Depth

Station Depth Elevation

Earthquake Activity

City Distance Mag. Time & Date
Minimum magnitude displayed is 2.5.

Coastal Water Temperatures

Place Temperature

Stations

Nearby Weather Stations

Station Location Temp. Windchill Dew Point Humidity Wind Precip. Elev Updated Type
                   

Watches & Warnings

There are currently no watches in effect.